Time;durP1;ratioP1;P1;durP2;ratioP2;P2;SDS_P1;SDS_P2;PMS_P1;PMS_P2;Temp;Humidity;BMP_temperature;BMP_pressure;BME280_temperature;BME280_humidity;BME280_pressure;Samples;Min_cycle;Max_cycle;Signal;HPM_P1;HPM_P2
2023/04/15 00:02:24;;;;;;;0.50;0.50;;;;;;;7.87;79.20;100514.38;5106438;28;20493;-60
2023/04/15 00:04:50;;;;;;;0.65;0.65;;;;;;;7.83;79.63;100520.38;5106574;28;20020;-61
2023/04/15 00:07:15;;;;;;;0.50;0.50;;;;;;;7.84;79.52;100529.84;5106652;28;20028;-60
2023/04/15 00:09:41;;;;;;;0.50;0.50;;;;;;;7.96;79.20;100540.25;5106372;28;20023;-59
2023/04/15 00:12:07;;;;;;;0.40;0.40;;;;;;;7.80;79.69;100536.72;5106360;28;20066;-59
2023/04/15 00:14:37;;;;;;;0.40;0.40;;;;;;;7.77;80.06;100544.47;5106472;28;20027;-61
2023/04/15 00:17:03;;;;;;;0.50;0.50;;;;;;;7.84;79.64;100537.63;5104509;28;20024;-60
2023/04/15 00:19:30;;;;;;;0.50;0.50;;;;;;;7.84;79.68;100543.66;5106248;28;20020;-60
2023/04/15 00:21:56;;;;;;;0.50;0.50;;;;;;;7.79;79.90;100545.34;5106250;28;20031;-60
2023/04/15 00:24:22;;;;;;;0.40;0.40;;;;;;;7.85;79.68;100544.50;5106190;28;20031;-61
2023/04/15 00:26:48;;;;;;;0.82;0.80;;;;;;;7.83;79.75;100547.06;5106170;28;20024;-60
2023/04/15 00:29:14;;;;;;;0.40;0.40;;;;;;;7.84;79.76;100547.94;5105995;28;20491;-61
2023/04/15 00:31:39;;;;;;;0.50;0.50;;;;;;;7.85;79.78;100536.75;5105561;28;20047;-60
2023/04/15 00:34:04;;;;;;;0.40;0.40;;;;;;;7.84;79.54;100543.66;5106138;28;20028;-59
2023/04/15 00:36:30;;;;;;;0.50;0.50;;;;;;;7.88;79.67;100542.81;5105890;28;20460;-59
2023/04/15 00:38:56;;;;;;;0.40;0.40;;;;;;;7.86;79.58;100543.66;5105801;28;20050;-62
2023/04/15 00:41:22;;;;;;;0.50;0.50;;;;;;;7.86;79.66;100541.91;5105875;28;20028;-60
2023/04/15 00:43:47;;;;;;;1.40;0.73;;;;;;;7.86;79.68;100546.25;5105737;28;20024;-59
2023/04/15 00:46:16;;;;;;;0.93;0.93;;;;;;;7.87;79.64;100547.97;5105512;28;20020;-59
2023/04/15 00:48:42;;;;;;;0.50;0.50;;;;;;;7.85;79.80;100555.72;5105493;28;20024;-60
2023/04/15 00:51:08;;;;;;;0.40;0.40;;;;;;;7.86;79.83;100556.59;5105814;28;20030;-59
2023/04/15 00:53:33;;;;;;;0.40;0.40;;;;;;;7.77;79.94;100539.28;5105934;28;20658;-59
2023/04/15 00:55:59;;;;;;;1.17;0.73;;;;;;;7.81;79.94;100543.63;5104216;28;20116;-61
2023/04/15 00:58:26;;;;;;;0.40;0.40;;;;;;;7.83;80.07;100546.22;5105343;28;20656;-59
2023/04/15 01:00:53;;;;;;;0.43;0.43;;;;;;;7.86;79.90;100546.25;5105607;28;20020;-61
2023/04/15 01:03:19;;;;;;;0.55;0.55;;;;;;;7.96;79.55;100554.88;5105267;28;20103;-60
2023/04/15 01:05:45;;;;;;;0.70;0.70;;;;;;;7.88;79.81;100552.28;5105516;28;20020;-60
2023/04/15 01:08:10;;;;;;;0.60;0.60;;;;;;;7.85;79.75;100547.97;5105491;28;20020;-60
2023/04/15 01:10:36;;;;;;;4.43;3.05;;;;;;;7.84;79.97;100547.94;5105179;28;20379;-60
2023/04/15 01:13:02;;;;;;;0.50;0.50;;;;;;;7.79;80.22;100537.59;5105426;28;20028;-59
2023/04/15 01:15:28;;;;;;;0.40;0.40;;;;;;;7.87;79.92;100547.97;5105267;28;20024;-61
2023/04/15 01:17:53;;;;;;;0.50;0.50;;;;;;;7.84;80.24;100540.19;5105045;28;20095;-61
2023/04/15 01:20:19;;;;;;;0.77;0.77;;;;;;;7.90;80.05;100543.69;5105321;28;20020;-60
2023/04/15 01:22:45;;;;;;;0.73;0.73;;;;;;;7.86;80.24;100544.50;5105285;28;20099;-60
2023/04/15 01:25:15;;;;;;;0.50;0.50;;;;;;;7.89;79.72;100546.25;5105021;28;20027;-61
2023/04/15 01:27:41;;;;;;;0.50;0.50;;;;;;;7.91;79.74;100539.34;5105346;28;20059;-60
2023/04/15 01:30:08;;;;;;;0.40;0.40;;;;;;;7.83;79.88;100536.75;5105050;28;20024;-60
2023/04/15 01:32:33;;;;;;;1.38;1.27;;;;;;;7.87;79.81;100545.38;5104729;28;20441;-60
2023/04/15 01:34:59;;;;;;;0.50;0.50;;;;;;;7.84;79.84;100535.91;5104013;28;20467;-59
2023/04/15 01:37:25;;;;;;;0.80;0.75;;;;;;;7.81;79.66;100535.88;5103154;28;20016;-59
2023/04/15 01:39:50;;;;;;;0.57;0.57;;;;;;;7.83;79.60;100541.06;5104465;28;20467;-61
2023/04/15 01:42:16;;;;;;;0.40;0.40;;;;;;;7.79;79.84;100535.00;5104094;28;20020;-60
2023/04/15 01:44:41;;;;;;;11.25;4.97;;;;;;;7.75;79.50;100528.06;5105061;28;20028;-59
2023/04/15 01:47:07;;;;;;;0.40;0.40;;;;;;;7.69;79.28;100522.03;5103566;28;20539;-59
2023/04/15 01:49:33;;;;;;;1.67;1.58;;;;;;;7.67;79.61;100533.19;5104101;28;20032;-59
2023/04/15 01:51:58;;;;;;;1.98;1.88;;;;;;;7.63;79.50;100528.88;5104376;28;20035;-60
2023/04/15 01:54:23;;;;;;;0.60;0.60;;;;;;;7.59;79.40;100534.91;5104258;28;20024;-60
2023/04/15 01:56:49;;;;;;;0.40;0.40;;;;;;;7.52;79.45;100529.69;5104288;28;20019;-60
2023/04/15 01:59:14;;;;;;;0.77;0.77;;;;;;;7.49;79.46;100526.22;5104268;28;20240;-60
2023/04/15 02:01:40;;;;;;;0.40;0.40;;;;;;;7.44;79.67;100533.94;5104190;28;20073;-61
2023/04/15 02:04:06;;;;;;;0.40;0.40;;;;;;;7.42;79.61;100541.69;5104136;28;20075;-59
2023/04/15 02:06:32;;;;;;;0.65;0.65;;;;;;;7.37;80.04;100545.06;5104324;28;20484;-62
2023/04/15 02:08:57;;;;;;;0.47;0.47;;;;;;;7.41;79.79;100547.69;5104049;28;20039;-60
2023/04/15 02:11:23;;;;;;;1.08;1.08;;;;;;;7.40;79.79;100548.56;5103956;28;20047;-60
2023/04/15 02:13:49;;;;;;;1.95;1.52;;;;;;;7.41;79.68;100541.69;5104145;28;20020;-59
2023/04/15 02:16:18;;;;;;;0.40;0.40;;;;;;;7.41;79.77;100539.94;5104305;28;20463;-60
2023/04/15 02:18:45;;;;;;;0.40;0.40;;;;;;;7.41;79.78;100547.69;5103916;28;20025;-60
2023/04/15 02:21:11;;;;;;;0.40;0.40;;;;;;;7.33;79.88;100539.03;5104154;28;20392;-60
2023/04/15 02:23:37;;;;;;;0.50;0.50;;;;;;;7.41;79.86;100549.44;5103482;28;20020;-60
2023/04/15 02:26:02;;;;;;;0.40;0.40;;;;;;;7.37;79.71;100551.13;5103791;28;20031;-61
2023/04/15 02:28:28;;;;;;;0.65;0.65;;;;;;;7.38;79.81;100560.59;5103716;28;20027;-60
2023/04/15 02:30:55;;;;;;;0.50;0.50;;;;;;;7.33;80.14;100551.97;5103763;28;20020;-59
2023/04/15 02:33:21;;;;;;;1.40;1.30;;;;;;;7.35;80.06;100557.13;5103583;28;20040;-60
2023/04/15 02:35:46;;;;;;;0.50;0.50;;;;;;;7.32;80.04;100550.22;5085674;28;20035;-60
2023/04/15 02:38:13;;;;;;;0.50;0.50;;;;;;;7.30;80.10;100551.94;5103795;28;20024;-60
2023/04/15 02:40:38;;;;;;;0.50;0.50;;;;;;;7.33;80.13;100551.97;5104047;28;20016;-60
2023/04/15 02:43:05;;;;;;;0.50;0.50;;;;;;;7.30;79.89;100557.94;5103802;28;20026;-60
2023/04/15 02:45:31;;;;;;;0.52;0.52;;;;;;;7.36;79.90;100553.69;5103810;28;20046;-60
2023/04/15 02:47:57;;;;;;;0.50;0.50;;;;;;;7.35;80.03;100559.72;5103693;28;20045;-60
2023/04/15 02:50:24;;;;;;;0.40;0.40;;;;;;;7.35;79.95;100559.72;5085405;28;20052;-61
2023/04/15 02:52:49;;;;;;;0.95;0.95;;;;;;;7.38;79.89;100557.16;5103747;28;20024;-61
2023/04/15 02:55:16;;;;;;;0.50;0.50;;;;;;;7.38;79.93;100563.16;5107645;28;20039;-61
2023/04/15 02:57:42;;;;;;;0.50;0.50;;;;;;;7.39;79.89;100575.25;5107872;28;20491;-60
2023/04/15 03:00:10;;;;;;;0.40;0.40;;;;;;;7.40;79.81;100563.19;5107738;28;20034;-60
2023/04/15 03:02:37;;;;;;;0.45;0.45;;;;;;;7.40;79.82;100570.94;5107559;28;20088;-61
2023/04/15 03:05:03;;;;;;;0.50;0.50;;;;;;;7.40;79.73;100569.22;5107784;28;20046;-60
2023/04/15 03:07:28;;;;;;;0.50;0.50;;;;;;;7.38;80.09;100570.06;5107622;28;20027;-59
2023/04/15 03:09:54;;;;;;;0.50;0.50;;;;;;;7.36;80.06;100575.22;5107541;28;20016;-60
2023/04/15 03:12:19;;;;;;;0.60;0.60;;;;;;;7.37;79.98;100571.78;5107305;28;20028;-60
2023/04/15 03:14:45;;;;;;;0.50;0.50;;;;;;;7.35;79.87;100565.72;5107723;28;20032;-60
2023/04/15 03:17:10;;;;;;;0.50;0.50;;;;;;;7.39;79.81;100572.66;5107220;28;20073;-60
2023/04/15 03:19:36;;;;;;;0.50;0.50;;;;;;;7.36;79.79;100577.81;5107370;28;20162;-59
2023/04/15 03:22:01;;;;;;;0.40;0.40;;;;;;;7.37;79.73;100569.19;5107353;28;20042;-60
2023/04/15 03:24:28;;;;;;;0.47;0.47;;;;;;;7.32;79.59;100568.28;5107385;28;20035;-60
2023/04/15 03:26:54;;;;;;;0.40;0.40;;;;;;;7.31;79.81;100574.31;5107312;28;20054;-60
2023/04/15 03:29:19;;;;;;;0.50;0.50;;;;;;;7.26;79.80;100568.25;5107217;28;20020;-61
2023/04/15 03:31:45;;;;;;;0.68;0.68;;;;;;;7.25;79.80;100574.28;5106746;28;20870;-60
2023/04/15 03:34:10;;;;;;;2.08;1.98;;;;;;;7.24;79.76;100572.53;5107517;28;20024;-60
2023/04/15 03:36:36;;;;;;;0.43;0.43;;;;;;;7.23;79.92;100570.81;5107444;28;20095;-59
2023/04/15 03:39:01;;;;;;;0.40;0.40;;;;;;;7.23;79.87;100576.84;5105847;28;20031;-61
2023/04/15 03:41:27;;;;;;;0.50;0.50;;;;;;;7.19;79.73;100575.94;5107193;28;20019;-60
2023/04/15 03:43:53;;;;;;;0.40;0.40;;;;;;;7.22;79.72;100584.56;5106901;28;20031;-60
2023/04/15 03:46:18;;;;;;;1.52;1.50;;;;;;;7.15;79.93;100581.94;5107241;28;20106;-60
2023/04/15 03:48:44;;;;;;;0.40;0.40;;;;;;;7.12;79.80;100579.34;5106554;28;20028;-61
2023/04/15 03:51:09;;;;;;;0.47;0.47;;;;;;;7.07;79.71;100571.56;5107004;28;20106;-61
2023/04/15 03:53:35;;;;;;;0.40;0.40;;;;;;;7.17;79.90;100585.38;5106711;28;20039;-60
2023/04/15 03:56:01;;;;;;;0.40;0.40;;;;;;;7.21;79.83;100578.53;5106742;28;20032;-59
2023/04/15 03:58:26;;;;;;;0.40;0.40;;;;;;;7.19;79.64;100598.31;5105926;28;20027;-59
2023/04/15 04:00:52;;;;;;;0.98;0.98;;;;;;;7.17;79.91;100590.53;5106389;28;20028;-59
2023/04/15 04:03:17;;;;;;;0.40;0.40;;;;;;;7.19;79.92;100587.97;5106490;28;20020;-61
2023/04/15 04:05:43;;;;;;;0.50;0.50;;;;;;;7.22;79.73;100584.56;5106214;28;20375;-60
2023/04/15 04:08:12;;;;;;;0.40;0.40;;;;;;;7.23;79.79;100601.78;5106422;28;20016;-60
2023/04/15 04:10:38;;;;;;;1.38;0.93;;;;;;;7.19;79.73;100596.59;5106522;28;20020;-60
2023/04/15 04:13:04;;;;;;;0.45;0.45;;;;;;;7.14;79.83;100598.28;5105304;28;20024;-61
2023/04/15 04:15:29;;;;;;;0.40;0.40;;;;;;;7.14;80.09;100597.44;5106170;28;20027;-59
2023/04/15 04:17:55;;;;;;;0.40;0.40;;;;;;;7.12;79.98;100588.78;5106367;28;20024;-60
2023/04/15 04:20:21;;;;;;;0.40;0.40;;;;;;;7.13;79.88;100591.38;5106205;28;20051;-59
2023/04/15 04:22:46;;;;;;;0.40;0.40;;;;;;;7.14;80.04;100587.94;5106223;28;20221;-61
2023/04/15 04:25:11;;;;;;;0.60;0.60;;;;;;;7.17;79.79;100593.13;5106229;28;20054;-60
2023/04/15 04:27:37;;;;;;;0.60;0.60;;;;;;;7.15;79.79;100594.84;5106199;28;20020;-61
2023/04/15 04:30:03;;;;;;;0.40;0.40;;;;;;;7.12;79.57;100592.25;5106116;28;20063;-60
2023/04/15 04:32:29;;;;;;;0.43;0.43;;;;;;;7.11;79.82;100603.41;5105828;28;20051;-60
2023/04/15 04:34:55;;;;;;;0.40;0.40;;;;;;;7.09;79.79;100597.38;5106148;28;20282;-61
2023/04/15 04:37:22;;;;;;;0.73;0.73;;;;;;;7.08;79.88;100598.22;5087885;28;20026;-60
2023/04/15 04:39:47;;;;;;;0.50;0.50;;;;;;;7.03;79.89;100607.63;5106045;28;20016;-59
2023/04/15 04:42:13;;;;;;;2.90;1.77;;;;;;;7.04;79.74;100611.97;5105717;28;20016;-59
2023/04/15 04:44:38;;;;;;;0.50;0.50;;;;;;;7.00;79.94;100605.88;5105824;28;20454;-59
2023/04/15 04:47:05;;;;;;;0.50;0.50;;;;;;;7.01;79.88;100606.75;5087572;28;20113;-60
2023/04/15 04:49:30;;;;;;;0.50;0.50;;;;;;;6.99;79.95;100606.75;5106022;28;20028;-60
2023/04/15 04:51:56;;;;;;;0.40;0.40;;;;;;;6.97;80.01;100611.03;5105462;28;20027;-60
2023/04/15 04:54:22;;;;;;;0.82;0.82;;;;;;;6.99;79.91;100614.50;5105692;28;20024;-59
2023/04/15 04:56:47;;;;;;;0.60;0.60;;;;;;;6.97;79.97;100616.19;5105929;28;20634;-60
2023/04/15 04:59:13;;;;;;;0.40;0.40;;;;;;;6.98;79.95;100615.31;5105416;28;20047;-61
2023/04/15 05:01:38;;;;;;;0.50;0.50;;;;;;;6.99;80.01;100622.25;5105655;28;20027;-60
2023/04/15 05:04:04;;;;;;;0.40;0.40;;;;;;;6.96;79.81;100614.47;5105468;28;20065;-60
2023/04/15 05:06:30;;;;;;;0.50;0.50;;;;;;;6.93;80.08;100617.88;5105324;28;20024;-60
2023/04/15 05:08:55;;;;;;;0.40;0.40;;;;;;;6.91;79.98;100610.97;5105339;28;20034;-61
2023/04/15 05:11:21;;;;;;;0.40;0.40;;;;;;;6.82;79.90;100602.28;5105598;28;20084;-60
2023/04/15 05:13:46;;;;;;;0.45;0.45;;;;;;;6.86;79.95;100616.09;5105360;28;20252;-61
2023/04/15 05:16:11;;;;;;;0.50;0.50;;;;;;;6.87;80.02;100616.97;5104483;28;20020;-59
2023/04/15 05:18:37;;;;;;;2.40;2.30;;;;;;;6.90;79.80;100615.25;5104930;28;20031;-59
2023/04/15 05:21:02;;;;;;;0.40;0.40;;;;;;;6.90;79.81;100614.41;5105000;28;20031;-60
2023/04/15 05:23:28;;;;;;;0.38;0.38;;;;;;;6.89;79.92;100625.56;5105201;28;20065;-60
2023/04/15 05:25:53;;;;;;;1.38;1.38;;;;;;;6.89;79.96;100623.84;5105056;28;20053;-60
2023/04/15 05:28:19;;;;;;;0.55;0.55;;;;;;;6.94;79.84;100624.78;5105092;28;20060;-59
2023/04/15 05:30:44;;;;;;;0.50;0.50;;;;;;;6.95;79.87;100628.22;5105142;28;20051;-60
2023/04/15 05:33:10;;;;;;;0.90;0.90;;;;;;;6.90;79.80;100635.06;5104513;28;20123;-60
2023/04/15 05:35:36;;;;;;;0.75;0.75;;;;;;;6.93;79.87;100625.59;5105204;28;20032;-59
2023/04/15 05:38:01;;;;;;;0.47;0.47;;;;;;;6.99;79.97;100640.31;5103785;28;20016;-59
2023/04/15 05:40:27;;;;;;;0.50;0.50;;;;;;;7.03;79.65;100638.59;5104622;28;20385;-60
2023/04/15 05:42:52;;;;;;;0.60;0.60;;;;;;;7.04;79.68;100637.78;5104609;28;20020;-61
2023/04/15 05:45:17;;;;;;;1.42;1.35;;;;;;;7.06;79.63;100643.81;5104610;28;20023;-59
2023/04/15 05:47:43;;;;;;;0.50;0.50;;;;;;;7.10;79.44;100637.84;5104635;28;20474;-59
2023/04/15 05:50:09;;;;;;;0.70;0.70;;;;;;;7.15;79.14;100641.34;5104555;28;20024;-60
2023/04/15 05:52:34;;;;;;;0.40;0.40;;;;;;;7.14;78.96;100649.91;5104662;28;20031;-59
2023/04/15 05:55:00;;;;;;;0.50;0.50;;;;;;;7.16;79.04;100648.22;5104491;28;20091;-61
2023/04/15 05:57:25;;;;;;;0.40;0.40;;;;;;;7.13;79.04;100652.47;5104559;28;20035;-60
2023/04/15 05:59:51;;;;;;;0.40;0.40;;;;;;;7.14;78.52;100660.25;5104452;28;20028;-60
2023/04/15 06:02:17;;;;;;;0.50;0.50;;;;;;;7.10;78.76;100655.03;5104502;28;20135;-60
2023/04/15 06:04:42;;;;;;;0.50;0.50;;;;;;;7.17;78.75;100659.41;5104047;28;20024;-60
2023/04/15 06:07:08;;;;;;;1.45;1.20;;;;;;;7.25;77.71;100659.50;5103113;28;20027;-60
2023/04/15 06:09:34;;;;;;;0.75;0.75;;;;;;;7.21;78.21;100660.28;5103139;28;20087;-59
2023/04/15 06:12:00;;;;;;;0.50;0.50;;;;;;;7.23;78.41;100659.47;5101374;28;20050;-61
2023/04/15 06:14:26;;;;;;;0.60;0.60;;;;;;;7.32;78.58;100666.44;5103900;28;20030;-62
2023/04/15 06:16:51;;;;;;;0.40;0.40;;;;;;;7.38;77.97;100669.06;5103680;28;20127;-61
2023/04/15 06:19:17;;;;;;;2.35;2.15;;;;;;;7.39;77.41;100665.66;5085511;28;20034;-60
2023/04/15 06:21:43;;;;;;;0.50;0.50;;;;;;;7.40;78.09;100661.34;5104108;28;20024;-59
2023/04/15 06:24:08;;;;;;;0.60;0.60;;;;;;;7.55;77.96;100665.78;5104091;28;20027;-61
2023/04/15 06:26:34;;;;;;;0.40;0.40;;;;;;;7.67;77.72;100671.03;5104397;28;20020;-59
2023/04/15 06:28:59;;;;;;;0.52;0.52;;;;;;;7.69;77.47;100679.69;5103425;28;20035;-60
2023/04/15 06:31:25;;;;;;;0.40;0.40;;;;;;;7.71;77.35;100682.28;5103478;28;20095;-60
2023/04/15 06:33:50;;;;;;;0.50;0.50;;;;;;;7.67;76.79;100678.78;5103948;28;20066;-60
2023/04/15 06:36:17;;;;;;;1.20;1.20;;;;;;;7.67;76.63;100685.66;5104130;28;20084;-59
2023/04/15 06:38:42;;;;;;;0.50;0.50;;;;;;;7.65;76.67;100683.06;5104240;28;20030;-60
2023/04/15 06:41:08;;;;;;;0.73;0.73;;;;;;;7.63;76.75;100679.63;5103586;28;20080;-61
2023/04/15 06:43:34;;;;;;;0.50;0.50;;;;;;;7.68;76.64;100688.25;5104018;28;20020;-60
2023/04/15 06:46:00;;;;;;;0.47;0.47;;;;;;;7.63;76.55;100692.56;5104000;28;20035;-60
2023/04/15 06:48:25;;;;;;;0.50;0.50;;;;;;;7.63;76.27;100687.38;5103741;28;20471;-61
2023/04/15 06:50:51;;;;;;;1.48;1.38;;;;;;;7.61;76.45;100690.78;5103801;28;20031;-61
2023/04/15 06:53:16;;;;;;;0.50;0.50;;;;;;;7.60;76.31;100694.25;5103870;28;20057;-60
2023/04/15 06:55:41;;;;;;;0.50;0.50;;;;;;;7.62;76.21;100698.56;5103911;28;20043;-62
2023/04/15 06:58:07;;;;;;;0.40;0.40;;;;;;;7.65;76.36;100700.31;5085722;28;20050;-61
2023/04/15 07:00:32;;;;;;;0.55;0.55;;;;;;;7.74;76.51;100709.84;5103927;28;20020;-60
2023/04/15 07:03:02;;;;;;;0.50;0.50;;;;;;;7.78;76.25;100701.28;5103622;28;20020;-60
2023/04/15 07:05:28;;;;;;;0.40;0.40;;;;;;;7.87;76.33;100708.25;5103866;28;20024;-61
2023/04/15 07:07:53;;;;;;;0.40;0.40;;;;;;;7.91;76.09;100704.81;5103507;28;20024;-60
2023/04/15 07:10:19;;;;;;;0.57;0.57;;;;;;;7.98;75.65;100710.91;5103637;28;20020;-60
2023/04/15 07:12:45;;;;;;;0.50;0.50;;;;;;;7.98;75.91;100710.91;5103789;28;20024;-60
2023/04/15 07:15:10;;;;;;;0.82;0.82;;;;;;;8.00;75.87;100709.19;5103852;28;20020;-60
2023/04/15 07:17:36;;;;;;;0.40;0.40;;;;;;;8.07;75.45;100713.53;5103661;28;20020;-59
2023/04/15 07:20:03;;;;;;;0.40;0.40;;;;;;;8.09;75.10;100719.59;5103673;28;20027;-61
2023/04/15 07:22:29;;;;;;;0.40;0.40;;;;;;;8.09;75.27;100713.56;5103599;28;20024;-60
2023/04/15 07:24:54;;;;;;;0.40;0.40;;;;;;;8.09;74.97;100717.00;5085506;28;20032;-59
2023/04/15 07:27:20;;;;;;;0.40;0.40;;;;;;;8.08;74.97;100719.59;5085428;28;20016;-60
2023/04/15 07:29:45;;;;;;;0.70;0.70;;;;;;;8.10;74.99;100721.31;5103665;28;20020;-60
2023/04/15 07:32:11;;;;;;;0.40;0.40;;;;;;;8.10;75.19;100729.06;5103264;28;20040;-60
2023/04/15 07:34:36;;;;;;;0.40;0.40;;;;;;;8.14;74.95;100728.25;5103567;28;20074;-60
2023/04/15 07:37:02;;;;;;;0.98;0.98;;;;;;;8.11;74.77;100722.19;5103679;28;20368;-60
2023/04/15 07:39:28;;;;;;;1.38;1.30;;;;;;;8.11;74.76;100727.38;5104042;28;20046;-60
2023/04/15 07:41:54;;;;;;;0.77;0.77;;;;;;;8.18;74.91;100734.31;5107172;28;20012;-61
2023/04/15 07:44:19;;;;;;;0.45;0.45;;;;;;;8.26;74.46;100739.56;5107059;28;20113;-60
2023/04/15 07:46:45;;;;;;;0.40;0.40;;;;;;;8.29;74.48;100737.81;5107320;28;20020;-60
2023/04/15 07:49:11;;;;;;;0.50;0.50;;;;;;;8.41;74.42;100747.41;5106810;28;20020;-59
2023/04/15 07:51:37;;;;;;;0.40;0.40;;;;;;;8.47;74.17;100736.22;5106779;28;20027;-59
2023/04/15 07:54:03;;;;;;;0.40;0.40;;;;;;;8.50;73.98;100741.41;5106784;28;20027;-59
2023/04/15 07:56:28;;;;;;;0.40;0.40;;;;;;;8.54;74.12;100752.66;5106905;28;20016;-60
2023/04/15 07:58:54;;;;;;;0.40;0.40;;;;;;;8.59;73.82;100744.94;5106712;28;20024;-60
2023/04/15 08:01:19;;;;;;;0.73;0.73;;;;;;;8.62;74.08;100753.59;5106608;28;20028;-60
2023/04/15 08:03:45;;;;;;;0.50;0.50;;;;;;;8.67;73.57;100749.28;5106313;28;20024;-59
2023/04/15 08:06:11;;;;;;;0.52;0.52;;;;;;;8.73;73.48;100745.00;5106566;28;20024;-59
2023/04/15 08:08:36;;;;;;;0.50;0.50;;;;;;;8.75;73.42;100756.22;5105955;28;20487;-60
2023/04/15 08:11:01;;;;;;;0.40;0.40;;;;;;;8.79;72.86;100757.97;5106118;28;20016;-60
2023/04/15 08:13:27;;;;;;;0.40;0.40;;;;;;;8.76;72.72;100765.72;5105971;28;20028;-58
2023/04/15 08:16:21;;;;;;;0.40;0.40;;;;;;;8.75;72.88;100764.00;5106017;28;20024;-58
2023/04/15 08:18:48;;;;;;;0.47;0.47;;;;;;;8.75;72.50;100766.59;5105776;28;20020;-60
2023/04/15 08:21:14;;;;;;;0.50;0.50;;;;;;;8.71;72.46;100760.53;5106104;28;20020;-61
2023/04/15 08:23:40;;;;;;;0.75;0.75;;;;;;;8.74;72.59;100763.13;5106084;28;20046;-60
2023/04/15 08:26:06;;;;;;;0.40;0.40;;;;;;;8.78;72.33;100771.78;5105973;28;20533;-59
2023/04/15 08:28:32;;;;;;;0.70;0.70;;;;;;;8.72;72.09;100775.19;5105845;28;20024;-61
2023/04/15 08:30:57;;;;;;;0.55;0.55;;;;;;;8.70;72.21;100779.50;5106072;28;20089;-60
2023/04/15 08:33:22;;;;;;;6.75;4.80;;;;;;;8.68;72.49;100760.50;5105180;28;20052;-60
2023/04/15 08:35:48;;;;;;;0.50;0.50;;;;;;;8.73;72.29;100768.28;5104924;28;20031;-59
2023/04/15 08:38:14;;;;;;;2.08;1.98;;;;;;;8.75;72.08;100782.13;5105071;28;20034;-61
2023/04/15 08:40:41;;;;;;;0.40;0.40;;;;;;;8.74;71.89;100775.22;5106052;28;20020;-60
2023/04/15 08:43:10;;;;;;;0.55;0.55;;;;;;;8.72;72.26;100776.94;5105984;28;20065;-59
2023/04/15 08:45:38;;;;;;;0.43;0.43;;;;;;;8.75;72.14;100785.59;5106199;28;20020;-58
2023/04/15 08:48:04;;;;;;;0.68;0.68;;;;;;;8.74;71.92;100788.16;5105735;28;20020;-60
2023/04/15 08:50:31;;;;;;;0.40;0.40;;;;;;;8.75;72.11;100780.41;5104700;28;20049;-60
2023/04/15 08:52:58;;;;;;;0.40;0.40;;;;;;;8.84;71.81;100784.75;5086446;28;20028;-59
2023/04/15 08:55:29;;;;;;;0.60;0.60;;;;;;;8.87;71.43;100792.53;5104704;28;20028;-61
2023/04/15 08:57:56;;;;;;;1.05;1.05;;;;;;;8.86;71.53;100790.81;5104768;28;20407;-61
2023/04/15 09:00:22;;;;;;;0.40;0.40;;;;;;;8.89;71.41;100780.47;5104538;28;20024;-59
2023/04/15 09:02:47;;;;;;;0.40;0.40;;;;;;;8.92;71.32;100782.19;5103681;28;20024;-60
2023/04/15 09:05:13;;;;;;;2.38;1.80;;;;;;;8.97;70.72;100798.63;5104946;28;20073;-62
2023/04/15 09:07:38;;;;;;;0.50;0.50;;;;;;;8.95;71.28;100794.28;5104288;28;20069;-61
2023/04/15 09:10:04;;;;;;;0.50;0.50;;;;;;;9.01;71.24;100790.00;5104712;28;20020;-59
2023/04/15 09:12:30;;;;;;;0.40;0.40;;;;;;;9.11;71.02;100795.22;5105420;28;20036;-59
2023/04/15 09:14:56;;;;;;;0.30;0.30;;;;;;;9.14;70.88;100790.03;5105592;28;20020;-57
2023/04/15 09:17:23;;;;;;;1.25;1.25;;;;;;;9.21;70.85;100790.94;5086930;28;20529;-58
2023/04/15 09:19:58;;;;;;;0.40;0.40;;;;;;;9.28;70.57;100787.53;5105147;28;20048;-60
2023/04/15 09:22:31;;;;;;;0.40;0.40;;;;;;;9.33;70.37;100796.16;5105369;28;20047;-61
2023/04/15 09:24:56;;;;;;;0.40;0.40;;;;;;;9.44;70.99;100798.78;5105364;28;20024;-60
2023/04/15 09:27:22;;;;;;;1.10;1.10;;;;;;;9.69;70.85;100791.06;5104804;28;20034;-59
2023/04/15 09:29:49;;;;;;;0.80;0.80;;;;;;;9.85;70.40;100791.97;5104386;28;20030;-61
2023/04/15 09:32:15;;;;;;;0.40;0.40;;;;;;;9.98;69.71;100792.84;5104717;28;20068;-58
2023/04/15 09:34:41;;;;;;;0.40;0.40;;;;;;;10.17;69.95;100792.81;5104949;28;20149;-60
2023/04/15 09:37:09;;;;;;;0.82;0.82;;;;;;;10.41;69.53;100802.28;5105203;28;20032;-61
2023/04/15 09:39:55;;;;;;;0.50;0.50;;;;;;;10.72;69.15;100804.00;5104543;28;20385;-61
2023/04/15 09:42:23;;;;;;;1.02;1.02;;;;;;;11.16;68.28;100803.84;5104319;28;20028;-60
2023/04/15 09:44:50;;;;;;;0.50;0.50;;;;;;;11.43;67.13;100793.31;5104820;28;20490;-58
2023/04/15 09:47:30;;;;;;;0.40;0.40;;;;;;;11.76;66.35;100797.44;5105393;28;20035;-59
2023/04/15 09:49:59;;;;;;;0.30;0.30;;;;;;;12.08;65.31;100792.91;5105732;28;20054;-60
2023/04/15 09:52:26;;;;;;;0.40;0.40;;;;;;;12.39;64.11;100792.63;5105542;28;20040;-58
2023/04/15 09:54:54;;;;;;;0.38;0.38;;;;;;;12.77;63.02;100798.31;5105481;28;20028;-60
2023/04/15 09:57:20;;;;;;;0.40;0.40;;;;;;;13.25;62.03;100790.78;5105499;28;20024;-60
2023/04/15 09:59:46;;;;;;;0.30;0.30;;;;;;;13.62;61.48;100792.91;5104266;28;20032;-60
2023/04/15 10:02:12;;;;;;;0.45;0.45;;;;;;;14.06;59.92;100800.03;5104230;28;20058;-59
2023/04/15 10:04:40;;;;;;;0.50;0.50;;;;;;;14.23;59.16;100797.13;5103331;28;20101;-60
2023/04/15 10:07:08;;;;;;;0.32;0.32;;;;;;;14.50;59.46;100794.06;5104314;28;20042;-59
2023/04/15 10:09:35;;;;;;;0.47;0.47;;;;;;;15.06;59.00;100803.47;5104196;28;20076;-61
2023/04/15 10:12:04;;;;;;;0.90;0.90;;;;;;;15.54;59.18;100787.63;5104403;28;20062;-58
2023/04/15 10:14:33;;;;;;;0.30;0.30;;;;;;;16.00;58.02;100801.38;5104328;28;20016;-60
2023/04/15 10:17:00;;;;;;;0.40;0.40;;;;;;;16.40;57.43;100796.88;5104196;28;20024;-60
2023/04/15 10:19:26;;;;;;;0.30;0.30;;;;;;;16.46;55.65;100785.38;5103870;28;20024;-60
2023/04/15 10:21:53;;;;;;;3.50;1.10;;;;;;;16.87;54.76;100792.13;5103487;28;20110;-60
2023/04/15 10:24:20;;;;;;;1.05;1.05;;;;;;;17.06;52.14;100788.06;5104029;28;20109;-60
2023/04/15 10:26:45;;;;;;;0.80;0.80;;;;;;;17.35;53.12;100793.34;5103998;28;20054;-61
2023/04/15 10:29:11;;;;;;;0.30;0.30;;;;;;;17.32;51.09;100789.06;5104112;28;20032;-59
2023/04/15 10:31:38;;;;;;;1.17;1.17;;;;;;;17.38;50.31;100795.03;5103625;28;20052;-58
2023/04/15 10:34:05;;;;;;;1.30;1.30;;;;;;;17.72;50.77;100804.47;5103528;28;20031;-60
2023/04/15 10:36:32;;;;;;;0.68;0.68;;;;;;;17.61;49.92;100789.06;5086291;28;20093;-59
2023/04/15 10:38:57;;;;;;;0.43;0.43;;;;;;;17.55;48.13;100810.25;5104142;28;20044;-60
2023/04/15 10:41:24;;;;;;;0.68;0.68;;;;;;;17.24;48.38;100798.94;5103667;28;20020;-61
2023/04/15 10:43:59;;;;;;;0.50;0.50;;;;;;;16.84;48.38;100801.78;5104271;28;20031;-61
2023/04/15 10:46:36;;;;;;;0.40;0.40;;;;;;;16.62;49.10;100787.56;5102816;28;20030;-60
2023/04/15 10:49:24;;;;;;;0.85;0.85;;;;;;;16.83;49.40;100792.22;5102587;28;20031;-59
2023/04/15 10:51:57;;;;;;;0.20;0.20;;;;;;;17.34;48.87;100797.75;5103672;28;20024;-58
2023/04/15 10:54:25;;;;;;;0.70;0.70;;;;;;;17.75;48.26;100778.09;5103654;28;20028;-59
2023/04/15 10:57:07;;;;;;;0.40;0.40;;;;;;;18.09;47.65;100791.91;5103709;28;20079;-60
2023/04/15 10:59:38;;;;;;;0.35;0.35;;;;;;;18.26;46.61;100787.88;5103998;28;20016;-60
2023/04/15 11:02:06;;;;;;;2.97;1.75;;;;;;;18.30;45.97;100781.59;5104017;28;20407;-59
2023/04/15 11:04:50;;;;;;;0.47;0.47;;;;;;;18.34;45.16;100788.44;5103754;28;20016;-60
2023/04/15 11:07:38;;;;;;;0.52;0.52;;;;;;;18.24;44.85;100801.06;5103898;28;20544;-59
2023/04/15 11:10:29;;;;;;;1.48;1.38;;;;;;;17.89;45.54;100793.41;5103649;28;20472;-64
2023/04/15 11:13:01;;;;;;;0.50;0.50;;;;;;;17.42;45.63;100810.66;5103577;28;20024;-59
2023/04/15 11:15:35;;;;;;;1.07;0.97;;;;;;;16.85;46.55;100806.13;5106030;28;20325;-60
2023/04/15 11:18:15;;;;;;;0.20;0.20;;;;;;;16.58;47.14;100799.91;5089189;28;20271;-61
2023/04/15 11:20:46;;;;;;;0.75;0.75;;;;;;;16.27;47.72;100817.31;5107534;28;20080;-61
2023/04/15 11:23:13;;;;;;;1.23;1.13;;;;;;;15.99;47.76;100804.88;5107696;28;20054;-59
2023/04/15 11:25:38;;;;;;;1.35;1.30;;;;;;;15.81;48.41;100808.81;5106450;28;20027;-59
2023/04/15 11:28:04;;;;;;;0.30;0.30;;;;;;;15.67;48.18;100822.22;5107028;28;20123;-60
2023/04/15 11:30:32;;;;;;;0.40;0.40;;;;;;;15.53;47.61;100815.53;5106949;28;20031;-59